Time;durP1;ratioP1;P1;durP2;ratioP2;P2;SDS_P1;SDS_P2;PMS_P1;PMS_P2;Temp;Humidity;BMP_temperature;BMP_pressure;BME280_temperature;BME280_humidity;BME280_pressure;Samples;Min_cycle;Max_cycle;Signal;HPM_P1;HPM_P2
2022/04/16 00:01:38;;;;;;;14.40;10.60;;;10.00;99.90;;;;;;5012897;28;20151;-67
2022/04/16 00:04:04;;;;;;;18.52;9.95;;;10.00;99.90;;;;;;5028549;28;20061;-67
2022/04/16 00:06:29;;;;;;;12.35;8.98;;;10.10;99.90;;;;;;5026011;28;20037;-67
2022/04/16 00:08:55;;;;;;;16.80;9.95;;;10.10;99.90;;;;;;5014530;28;20129;-67
2022/04/16 00:11:20;;;;;;;10.63;8.40;;;10.10;99.90;;;;;;5020225;28;20401;-67
2022/04/16 00:13:49;;;;;;;12.35;9.20;;;10.10;99.90;;;;;;5032161;28;20378;-67
2022/04/16 00:16:17;;;;;;;13.25;10.05;;;10.10;99.90;;;;;;5030843;28;20497;-67
2022/04/16 00:18:43;;;;;;;12.18;10.00;;;10.00;99.90;;;;;;5025278;28;20445;-67
2022/04/16 00:21:09;;;;;;;18.35;9.75;;;10.10;99.90;;;;;;5012433;28;20077;-67
2022/04/16 00:23:34;;;;;;;12.13;9.60;;;10.00;99.90;;;;;;5026448;28;20084;-67
2022/04/16 00:26:02;;;;;;;14.70;9.63;;;10.00;99.90;;;;;;5030961;28;20168;-67
2022/04/16 00:28:28;;;;;;;16.92;10.07;;;10.10;99.90;;;;;;5022565;28;20084;-67
2022/04/16 00:30:56;;;;;;;11.32;9.10;;;10.10;99.90;;;;;;5022309;28;20044;-67
2022/04/16 00:33:21;;;;;;;12.55;9.98;;;10.00;99.90;;;;;;5026373;28;20038;-67
2022/04/16 00:35:47;;;;;;;15.07;9.32;;;10.10;99.90;;;;;;5019135;28;20117;-67
2022/04/16 00:38:13;;;;;;;14.45;9.88;;;10.10;99.90;;;;;;5030679;28;20049;-67
2022/04/16 00:40:39;;;;;;;15.27;10.27;;;10.10;99.90;;;;;;5031762;28;20049;-67
2022/04/16 00:43:05;;;;;;;12.57;10.13;;;10.00;99.90;;;;;;5032377;28;20045;-67
2022/04/16 00:45:31;;;;;;;12.93;9.32;;;10.00;99.90;;;;;;5030340;28;20068;-67
2022/04/16 00:47:59;;;;;;;13.48;9.88;;;10.00;99.90;;;;;;5016205;28;20481;-67
2022/04/16 00:50:24;;;;;;;12.32;10.10;;;10.00;99.90;;;;;;5012122;28;20397;-67
2022/04/16 00:52:50;;;;;;;14.90;9.85;;;10.00;99.90;;;;;;5010722;28;20168;-67
2022/04/16 00:55:17;;;;;;;18.38;11.15;;;10.00;99.90;;;;;;5017339;28;20045;-67
2022/04/16 00:57:43;;;;;;;15.82;10.38;;;10.00;99.90;;;;;;5025940;28;20088;-67
2022/04/16 01:00:11;;;;;;;17.15;10.18;;;10.00;99.90;;;;;;5013298;28;20481;-67
2022/04/16 01:02:38;;;;;;;16.50;10.80;;;10.00;99.90;;;;;;5021775;28;20482;-67
2022/04/16 01:05:05;;;;;;;12.80;9.43;;;10.00;99.90;;;;;;5028326;28;20038;-67
2022/04/16 01:07:31;;;;;;;14.18;10.60;;;10.00;99.90;;;;;;5013572;28;20041;-67
2022/04/16 01:09:57;;;;;;;18.05;9.85;;;10.00;99.90;;;;;;5011494;28;20385;-67
2022/04/16 01:12:23;;;;;;;18.80;11.35;;;10.00;99.90;;;;;;5010934;28;20181;-67
2022/04/16 01:14:50;;;;;;;12.80;9.57;;;10.00;99.90;;;;;;5026085;28;20037;-67
2022/04/16 01:17:16;;;;;;;13.63;9.88;;;10.10;99.90;;;;;;5016669;28;20494;-67
2022/04/16 01:19:42;;;;;;;12.50;9.05;;;10.10;99.90;;;;;;5010623;28;20049;-67
2022/04/16 01:22:14;;;;;;;13.20;9.77;;;10.10;99.90;;;;;;5011818;28;20046;-67
2022/04/16 01:24:43;;;;;;;12.70;9.80;;;10.10;99.90;;;;;;5011227;28;20042;-67
2022/04/16 01:27:10;;;;;;;12.95;10.00;;;10.10;99.90;;;;;;5027325;28;20513;-67
2022/04/16 01:29:36;;;;;;;17.92;11.43;;;10.10;99.90;;;;;;5029213;28;20037;-67
2022/04/16 01:32:02;;;;;;;13.05;9.88;;;10.10;99.90;;;;;;5030172;28;20496;-67
2022/04/16 01:34:29;;;;;;;15.65;9.65;;;10.10;99.90;;;;;;5029873;28;20049;-67
2022/04/16 01:36:54;;;;;;;13.90;10.63;;;10.10;99.90;;;;;;5018902;28;20050;-67
2022/04/16 01:39:20;;;;;;;14.95;10.48;;;10.10;99.90;;;;;;5019533;28;20047;-67
2022/04/16 01:41:46;;;;;;;16.88;10.27;;;10.10;99.90;;;;;;5009880;28;20137;-67
2022/04/16 01:44:12;;;;;;;19.17;11.00;;;10.10;99.90;;;;;;5011582;28;20123;-67
2022/04/16 01:46:37;;;;;;;15.13;10.43;;;10.10;99.90;;;;;;5029568;28;20051;-67
2022/04/16 01:49:03;;;;;;;18.23;11.10;;;10.10;99.90;;;;;;5028900;28;20060;-67
2022/04/16 01:51:29;;;;;;;17.23;11.63;;;10.10;99.90;;;;;;5030244;28;20042;-67
2022/04/16 01:53:54;;;;;;;14.48;11.30;;;10.10;99.90;;;;;;5029047;28;20064;-67
2022/04/16 01:56:20;;;;;;;21.70;11.98;;;10.10;99.90;;;;;;5023716;28;20420;-67
2022/04/16 01:58:45;;;;;;;16.67;12.18;;;10.20;99.90;;;;;;5014189;28;20521;-67
2022/04/16 02:01:11;;;;;;;15.43;11.38;;;10.20;99.90;;;;;;5011102;28;20405;-67
2022/04/16 02:03:37;;;;;;;18.73;12.88;;;10.10;99.90;;;;;;5009758;28;20045;-67
2022/04/16 02:06:04;;;;;;;19.02;12.40;;;10.10;99.90;;;;;;5021203;28;20041;-67
2022/04/16 02:08:29;;;;;;;17.13;13.07;;;10.00;99.90;;;;;;5029737;28;20041;-67
2022/04/16 02:10:55;;;;;;;24.77;13.45;;;10.00;99.90;;;;;;5030556;28;20115;-67
2022/04/16 02:13:21;;;;;;;21.33;13.30;;;10.00;99.90;;;;;;5020669;28;20096;-67
2022/04/16 02:15:46;;;;;;;19.30;14.77;;;10.10;99.90;;;;;;5018808;28;20393;-67
2022/04/16 02:18:12;;;;;;;21.40;14.30;;;10.00;99.90;;;;;;5021224;28;20081;-67
2022/04/16 02:20:38;;;;;;;18.80;13.93;;;10.00;99.90;;;;;;5016143;28;20849;-67
2022/04/16 02:23:04;;;;;;;20.25;13.18;;;10.00;99.90;;;;;;5028407;28;20056;-67
2022/04/16 02:25:33;;;;;;;16.98;13.23;;;10.00;99.90;;;;;;5027770;28;20037;-67
2022/04/16 02:27:59;;;;;;;16.00;13.50;;;10.10;99.90;;;;;;5027385;28;20122;-67
2022/04/16 02:30:24;;;;;;;19.10;13.68;;;10.10;99.90;;;;;;5015816;28;20042;-67
2022/04/16 02:32:54;;;;;;;23.23;14.00;;;10.10;99.90;;;;;;5011269;28;20054;-67
2022/04/16 02:35:21;;;;;;;16.92;14.00;;;10.10;99.90;;;;;;5017044;28;20045;-67
2022/04/16 02:37:47;;;;;;;19.70;13.43;;;10.00;99.90;;;;;;5029721;28;20050;-67
2022/04/16 02:40:13;;;;;;;25.15;16.30;;;10.00;99.90;;;;;;5011086;28;20045;-67
2022/04/16 02:42:41;;;;;;;19.38;14.85;;;10.10;99.90;;;;;;5009611;28;20046;-67
2022/04/16 02:47:54;;;;;;;19.27;14.32;;;10.20;99.90;;;;;;5021473;28;20077;-67
2022/04/16 02:50:20;;;;;;;19.27;13.90;;;10.20;99.90;;;;;;5014259;28;20100;-67
2022/04/16 02:52:46;;;;;;;19.55;13.52;;;10.10;99.90;;;;;;5011132;28;20052;-67
2022/04/16 02:55:15;;;;;;;21.08;14.55;;;10.00;99.90;;;;;;5027609;28;20065;-67
2022/04/16 02:57:42;;;;;;;20.85;15.27;;;10.00;99.90;;;;;;5031059;28;20159;-67
2022/04/16 03:00:10;;;;;;;15.85;12.35;;;10.10;99.90;;;;;;5014307;28;20402;-67
2022/04/16 03:02:36;;;;;;;18.65;14.30;;;10.10;99.90;;;;;;5014249;28;20038;-67
2022/04/16 03:05:03;;;;;;;21.08;15.48;;;10.10;99.90;;;;;;5029547;28;20243;-67
2022/04/16 03:07:29;;;;;;;22.77;15.23;;;10.10;99.90;;;;;;5020814;28;20045;-67
2022/04/16 03:09:54;;;;;;;22.30;15.13;;;10.10;99.90;;;;;;5031133;28;20374;-67
2022/04/16 03:12:20;;;;;;;23.20;15.80;;;10.00;99.90;;;;;;5018225;28;20042;-67
2022/04/16 03:17:32;;;;;;;20.10;14.50;;;10.00;99.90;;;;;;5033378;28;20042;-67
2022/04/16 03:20:06;;;;;;;23.83;15.85;;;10.00;99.90;;;;;;5031834;28;20290;-67
2022/04/16 03:22:33;;;;;;;;;;;10.00;99.90;;;;;;5027464;28;20061;-67
2022/04/16 03:25:01;;;;;;;23.10;16.20;;;10.00;99.90;;;;;;5032212;28;20304;-67
2022/04/16 03:27:26;;;;;;;20.27;15.55;;;9.90;99.90;;;;;;5022692;28;20053;-67
2022/04/16 03:29:52;;;;;;;19.83;15.77;;;9.90;99.90;;;;;;5013022;28;20046;-67
2022/04/16 03:32:17;;;;;;;25.30;18.08;;;10.00;99.90;;;;;;5013961;28;20501;-67
2022/04/16 03:34:43;;;;;;;21.42;16.00;;;10.00;99.90;;;;;;5011428;28;20099;-67
2022/04/16 03:37:08;;;;;;;22.40;17.05;;;9.90;99.90;;;;;;5028940;28;20104;-67
2022/04/16 03:39:34;;;;;;;26.60;16.00;;;10.00;99.90;;;;;;5029998;28;20045;-67
2022/04/16 03:41:59;;;;;;;24.63;17.98;;;10.00;99.90;;;;;;5023833;28;20498;-67
2022/04/16 03:44:25;;;;;;;24.75;16.40;;;10.00;99.90;;;;;;5014905;28;20042;-67
2022/04/16 03:46:50;;;;;;;21.70;14.45;;;9.90;99.90;;;;;;5032676;28;20059;-67
2022/04/16 03:49:16;;;;;;;24.98;16.52;;;9.90;99.90;;;;;;5018622;28;20042;-67
2022/04/16 03:51:41;;;;;;;22.55;17.40;;;10.00;99.90;;;;;;5013710;28;20057;-67
2022/04/16 04:02:28;;;;;;;23.92;17.20;;;10.00;99.90;;;;;;5021912;28;20081;-67
2022/04/16 04:04:54;;;;;;;24.50;17.15;;;9.90;99.90;;;;;;5020037;28;20111;-67
2022/04/16 04:07:20;;;;;;;24.25;16.80;;;9.90;99.90;;;;;;5024423;28;20566;-67
2022/04/16 04:09:46;;;;;;;27.65;18.95;;;10.00;99.90;;;;;;5017641;28;20279;-67
2022/04/16 04:12:13;;;;;;;22.80;17.58;;;9.80;99.90;;;;;;5028536;28;20390;-67
2022/04/16 04:14:40;;;;;;;22.33;18.80;;;9.90;99.90;;;;;;5032443;28;20161;-67
2022/04/16 04:17:07;;;;;;;23.73;18.10;;;9.70;99.90;;;;;;5027174;28;20486;-67
2022/04/16 04:19:38;;;;;;;26.77;19.52;;;9.70;99.90;;;;;;5028155;28;20044;-67
2022/04/16 04:22:04;;;;;;;21.50;15.75;;;9.70;99.90;;;;;;5031946;28;20489;-67
2022/04/16 04:24:30;;;;;;;21.23;16.15;;;9.70;99.90;;;;;;5023257;28;20366;-67
2022/04/16 04:26:57;;;;;;;21.05;18.15;;;9.60;99.90;;;;;;5030814;28;20049;-67
2022/04/16 04:29:23;;;;;;;26.55;17.35;;;9.50;99.90;;;;;;5021742;28;20461;-67
2022/04/16 04:31:48;;;;;;;26.63;15.88;;;9.50;99.90;;;;;;5027976;28;20049;-67
2022/04/16 04:34:14;;;;;;;24.90;16.55;;;9.50;99.90;;;;;;5017346;28;20049;-67
2022/04/16 04:36:39;;;;;;;27.30;18.83;;;9.50;99.90;;;;;;5011237;28;20053;-67
2022/04/16 04:39:05;;;;;;;27.85;21.23;;;9.50;99.90;;;;;;5012368;28;20041;-67
2022/04/16 04:41:31;;;;;;;23.25;17.33;;;9.40;99.90;;;;;;5011556;28;20500;-67
2022/04/16 04:43:56;;;;;;;20.98;15.93;;;9.40;99.90;;;;;;5011587;28;20038;-67
2022/04/16 04:46:22;;;;;;;20.33;16.80;;;9.40;99.90;;;;;;5029798;28;20488;-67
2022/04/16 04:48:47;;;;;;;24.58;18.17;;;9.40;99.90;;;;;;5012312;28;20073;-67
2022/04/16 04:51:13;;;;;;;29.02;18.67;;;9.30;99.90;;;;;;5029123;28;20103;-67
2022/04/16 04:53:38;;;;;;;32.00;20.48;;;9.20;99.90;;;;;;5012273;28;20057;-67
2022/04/16 04:56:04;;;;;;;35.17;20.23;;;9.20;99.90;;;;;;5027308;28;20068;-67
2022/04/16 04:58:30;;;;;;;33.15;20.60;;;9.20;99.90;;;;;;5030858;28;20042;-67
2022/04/16 05:00:57;;;;;;;32.60;20.75;;;9.20;99.90;;;;;;5030470;28;20056;-67
2022/04/16 05:03:23;;;;;;;33.22;18.70;;;9.20;99.90;;;;;;5019320;28;20050;-67
2022/04/16 05:05:48;;;;;;;26.30;19.42;;;9.20;99.90;;;;;;5012193;28;20041;-67
2022/04/16 05:08:14;;;;;;;24.05;17.15;;;9.20;99.90;;;;;;5010763;28;20054;-67
2022/04/16 05:10:39;;;;;;;27.60;18.38;;;9.20;99.90;;;;;;5013663;28;20046;-67
2022/04/16 05:13:05;;;;;;;29.70;19.80;;;9.10;99.90;;;;;;5021289;28;20049;-67
2022/04/16 05:15:30;;;;;;;28.67;19.13;;;9.10;99.90;;;;;;5031170;28;20033;-67
2022/04/16 05:17:56;;;;;;;25.60;20.20;;;9.10;99.90;;;;;;5029566;28;20053;-67
2022/04/16 05:20:21;;;;;;;24.27;18.42;;;9.00;99.90;;;;;;5028872;28;20046;-67
2022/04/16 05:22:47;;;;;;;28.00;20.67;;;9.10;99.90;;;;;;5014804;28;20405;-67
2022/04/16 05:25:13;;;;;;;24.60;20.75;;;9.00;99.90;;;;;;5011244;28;20084;-67
2022/04/16 05:27:38;;;;;;;27.30;20.30;;;9.10;99.90;;;;;;5019859;28;20164;-68
2022/04/16 05:30:13;;;;;;;27.13;19.73;;;9.10;99.90;;;;;;5021769;28;20106;-67
2022/04/16 05:32:40;;;;;;;24.00;19.73;;;9.10;99.90;;;;;;5026629;28;20046;-67
2022/04/16 05:35:08;;;;;;;26.85;20.95;;;9.10;99.90;;;;;;5010371;28;20567;-67
2022/04/16 05:37:34;;;;;;;29.52;21.02;;;9.20;99.90;;;;;;5011111;28;20049;-67
2022/04/16 05:40:01;;;;;;;23.17;18.92;;;9.20;99.90;;;;;;5010569;28;20041;-67
2022/04/16 05:42:26;;;;;;;29.13;21.88;;;9.20;99.90;;;;;;5010161;28;20385;-67
2022/04/16 05:44:52;;;;;;;29.38;20.85;;;9.20;99.90;;;;;;5016433;28;20152;-68
2022/04/16 05:47:17;;;;;;;28.23;20.88;;;9.30;99.90;;;;;;5030517;28;20045;-67
2022/04/16 05:49:43;;;;;;;26.13;21.02;;;9.40;99.90;;;;;;5028163;28;20049;-67
2022/04/16 05:52:09;;;;;;;25.92;19.08;;;9.30;99.90;;;;;;5021937;28;20183;-67
2022/04/16 05:54:38;;;;;;;27.08;20.83;;;9.40;99.90;;;;;;5018023;28;20128;-68
2022/04/16 05:57:04;;;;;;;25.77;20.70;;;9.40;99.90;;;;;;5030199;28;20049;-67
2022/04/16 05:59:30;;;;;;;26.15;22.40;;;9.50;99.90;;;;;;5024029;28;20069;-67
2022/04/16 06:01:56;;;;;;;33.55;23.40;;;9.60;99.90;;;;;;5026141;28;20146;-67
2022/04/16 06:04:21;;;;;;;29.92;21.83;;;9.60;99.90;;;;;;5013973;28;20044;-67
2022/04/16 06:06:47;;;;;;;28.73;22.42;;;9.60;99.90;;;;;;5022285;28;20095;-67
2022/04/16 06:09:13;;;;;;;35.72;25.42;;;9.70;99.90;;;;;;5018549;28;20046;-67
2022/04/16 06:11:38;;;;;;;32.70;25.95;;;9.60;99.90;;;;;;5009376;28;20062;-67
2022/04/16 06:14:04;;;;;;;33.90;24.60;;;9.70;99.90;;;;;;5010831;28;20041;-69
2022/04/16 06:16:30;;;;;;;33.83;24.73;;;9.90;99.90;;;;;;5028045;28;20036;-68
2022/04/16 06:18:55;;;;;;;30.00;24.02;;;9.90;99.90;;;;;;5025163;28;21484;-69
2022/04/16 06:21:21;;;;;;;32.47;25.17;;;10.00;99.90;;;;;;5019204;28;20068;-68
2022/04/16 06:23:46;;;;;;;38.88;27.52;;;10.00;99.90;;;;;;5029407;28;20084;-69
2022/04/16 06:26:12;;;;;;;38.85;26.92;;;10.00;99.90;;;;;;5029284;28;20071;-69
2022/04/16 06:28:37;;;;;;;40.60;27.25;;;10.00;99.90;;;;;;5016252;28;20764;-69
2022/04/16 06:31:03;;;;;;;31.33;25.75;;;10.10;99.90;;;;;;5009338;28;20048;-69
2022/04/16 06:33:28;;;;;;;33.17;26.15;;;10.00;99.90;;;;;;5024269;28;20052;-69
2022/04/16 06:35:54;;;;;;;29.90;24.00;;;10.20;99.90;;;;;;5029517;28;20045;-69
2022/04/16 06:38:19;;;;;;;30.90;23.15;;;10.00;99.90;;;;;;5021605;28;20127;-69
2022/04/16 06:40:45;;;;;;;30.67;24.92;;;10.10;99.90;;;;;;5011855;28;20481;-68
2022/04/16 06:43:10;;;;;;;34.28;24.88;;;10.10;99.90;;;;;;5027807;28;20049;-68
2022/04/16 06:45:36;;;;;;;31.30;25.63;;;10.20;99.90;;;;;;5018730;28;20085;-68
2022/04/16 06:48:02;;;;;;;33.03;25.50;;;10.20;99.90;;;;;;5010315;28;20049;-69
2022/04/16 06:50:28;;;;;;;29.50;23.83;;;10.10;99.90;;;;;;5018603;28;20026;-68
2022/04/16 06:52:56;;;;;;;28.42;23.27;;;10.10;99.90;;;;;;5027835;28;20570;-70
2022/04/16 06:55:22;;;;;;;31.15;24.50;;;10.10;99.90;;;;;;5012717;28;20073;-69
2022/04/16 06:57:48;;;;;;;30.50;22.38;;;10.10;99.90;;;;;;5009661;28;20039;-69
2022/04/16 07:00:13;;;;;;;29.08;22.70;;;10.10;99.90;;;;;;5010362;28;20054;-69
2022/04/16 07:02:39;;;;;;;28.63;21.25;;;10.20;99.90;;;;;;5010035;28;20046;-69
2022/04/16 07:05:07;;;;;;;28.38;21.10;;;10.30;99.90;;;;;;5019814;28;20041;-69
2022/04/16 07:07:33;;;;;;;24.02;19.55;;;10.30;99.90;;;;;;5013064;28;20125;-68
2022/04/16 07:09:59;;;;;;;26.17;21.13;;;10.30;99.90;;;;;;5009987;28;20042;-69
2022/04/16 07:12:24;;;;;;;23.05;17.85;;;10.40;99.90;;;;;;5009682;28;20046;-69
2022/04/16 07:14:50;;;;;;;26.63;19.35;;;10.40;99.90;;;;;;5028182;28;20064;-69
2022/04/16 07:17:16;;;;;;;20.15;16.60;;;10.30;99.90;;;;;;5014526;28;20053;-69
2022/04/16 07:19:41;;;;;;;20.35;15.88;;;10.30;99.90;;;;;;5015796;28;20057;-68
2022/04/16 07:22:07;;;;;;;19.08;14.32;;;10.30;99.90;;;;;;5018406;28;20049;-68
2022/04/16 07:24:37;;;;;;;21.40;14.80;;;10.30;99.90;;;;;;5026930;28;20456;-68
2022/04/16 07:27:06;;;;;;;19.63;13.73;;;10.30;99.90;;;;;;5025621;28;20037;-68
2022/04/16 07:29:32;;;;;;;22.70;14.20;;;10.30;99.90;;;;;;5024756;28;20069;-68
2022/04/16 07:31:58;;;;;;;19.90;13.05;;;10.40;99.90;;;;;;5022022;28;20739;-68
2022/04/16 07:34:25;;;;;;;20.00;14.50;;;10.50;99.90;;;;;;5021918;28;20092;-68
2022/04/16 07:36:51;;;;;;;21.65;15.80;;;10.50;99.90;;;;;;5028508;28;20061;-68
2022/04/16 07:39:16;;;;;;;20.35;14.20;;;10.60;99.90;;;;;;5028903;28;20393;-68
2022/04/16 07:41:42;;;;;;;20.63;13.32;;;10.70;99.90;;;;;;5032575;28;20392;-69
2022/04/16 07:44:08;;;;;;;19.23;13.60;;;10.70;99.90;;;;;;5022724;28;20065;-68
2022/04/16 07:46:34;;;;;;;17.05;12.95;;;10.80;99.90;;;;;;5018940;28;20525;-69
2022/04/16 07:49:00;;;;;;;20.10;14.18;;;10.70;99.90;;;;;;5018957;28;20053;-69
2022/04/16 07:51:27;;;;;;;16.85;12.52;;;10.80;99.90;;;;;;5022462;28;20041;-69
2022/04/16 07:53:54;;;;;;;23.70;15.70;;;10.90;99.90;;;;;;5015874;28;20046;-68
2022/04/16 07:56:19;;;;;;;16.25;11.60;;;10.80;99.90;;;;;;5030591;28;20050;-68
2022/04/16 07:58:45;;;;;;;20.00;14.52;;;11.00;99.90;;;;;;5030139;28;20037;-69
2022/04/16 08:01:11;;;;;;;16.23;13.35;;;11.00;99.90;;;;;;5023726;28;20172;-69
2022/04/16 08:03:38;;;;;;;16.63;12.60;;;10.90;99.90;;;;;;5028319;28;20050;-68
2022/04/16 08:06:03;;;;;;;15.00;11.57;;;10.90;99.90;;;;;;5032847;28;20042;-69
2022/04/16 08:08:29;;;;;;;15.48;11.07;;;11.00;99.90;;;;;;5024808;28;20048;-69
2022/04/16 08:10:56;;;;;;;18.60;12.73;;;11.10;99.90;;;;;;5020100;28;20050;-69
2022/04/16 08:13:22;;;;;;;16.05;11.82;;;11.10;99.90;;;;;;5012651;28;20054;-69
2022/04/16 08:15:48;;;;;;;14.55;11.55;;;11.10;99.90;;;;;;5012363;28;20067;-68
2022/04/16 08:18:14;;;;;;;14.57;8.98;;;11.30;99.90;;;;;;5025342;28;20552;-68
2022/04/16 08:20:40;;;;;;;11.48;8.93;;;11.40;99.90;;;;;;5032075;28;20128;-69
2022/04/16 08:23:06;;;;;;;22.83;12.07;;;11.60;99.90;;;;;;5018931;28;20662;-68
2022/04/16 08:28:02;;;;;;;16.00;10.55;;;11.60;99.90;;;;;;5021536;28;20050;-69
2022/04/16 08:30:28;;;;;;;23.02;15.43;;;11.90;99.90;;;;;;5025161;28;20041;-69
2022/04/16 08:32:54;;;;;;;15.65;11.20;;;12.00;99.90;;;;;;5029514;28;20092;-69
2022/04/16 08:35:19;;;;;;;22.00;10.73;;;12.40;99.90;;;;;;5011760;28;20113;-69
2022/04/16 08:37:47;;;;;;;17.60;9.57;;;13.00;99.90;;;;;;5010776;28;20539;-69
2022/04/16 08:40:14;;;;;;;15.15;10.68;;;13.60;99.90;;;;;;5014478;28;20066;-69
2022/04/16 08:42:41;;;;;;;17.35;8.68;;;14.30;99.90;;;;;;5022059;28;20064;-69
2022/04/16 08:45:09;;;;;;;11.65;8.35;;;14.90;99.90;;;;;;5014750;28;20403;-69
2022/04/16 08:47:35;;;;;;;11.95;8.82;;;15.40;99.90;;;;;;5012155;28;20437;-69
2022/04/16 08:50:03;;;;;;;15.70;10.07;;;15.90;99.90;;;;;;5028048;28;20069;-69
2022/04/16 08:52:30;;;;;;;11.38;8.48;;;16.30;99.90;;;;;;5030501;28;20052;-69
2022/04/16 08:54:58;;;;;;;12.45;7.60;;;16.40;99.90;;;;;;5031548;28;20107;-69
2022/04/16 08:57:24;;;;;;;12.23;8.27;;;16.70;99.90;;;;;;5018755;28;20064;-70
2022/04/16 08:59:52;;;;;;;12.00;8.15;;;16.70;99.90;;;;;;5012230;28;20129;-70
2022/04/16 09:02:19;;;;;;;11.80;8.52;;;17.00;99.90;;;;;;5011912;28;20121;-70
2022/04/16 09:04:46;;;;;;;9.02;6.75;;;16.90;99.90;;;;;;5009222;28;20655;-69
2022/04/16 09:07:12;;;;;;;10.25;7.28;;;16.90;99.90;;;;;;5023476;28;20103;-70
2022/04/16 09:09:38;;;;;;;11.88;7.93;;;17.20;99.90;;;;;;5030947;28;20046;-70
2022/04/16 09:12:14;;;;;;;10.80;7.50;;;16.90;99.90;;;;;;5029807;28;20107;-70
2022/04/16 09:14:43;;;;;;;11.23;7.65;;;17.40;99.90;;;;;;5011457;28;20081;-70
2022/04/16 09:17:13;;;;;;;10.85;6.53;;;17.60;99.90;;;;;;5011506;28;20505;-70
2022/04/16 09:19:39;;;;;;;10.15;7.15;;;17.70;99.90;;;;;;5023032;28;20418;-70
2022/04/16 09:22:04;;;;;;;10.98;7.93;;;17.70;99.90;;;;;;5011525;28;20042;-70
2022/04/16 09:24:45;;;;;;;9.63;6.63;;;17.70;99.90;;;;;;5011024;28;20057;-70
2022/04/16 09:27:10;;;;;;;10.00;7.00;;;18.10;99.60;;;;;;5011969;28;20079;-69
2022/04/16 09:29:36;;;;;;;12.65;8.55;;;18.30;99.90;;;;;;5011037;28;20077;-69
2022/04/16 09:32:02;;;;;;;9.73;6.35;;;18.20;99.70;;;;;;5027900;28;20732;-69
2022/04/16 09:34:27;;;;;;;12.20;7.65;;;18.30;99.00;;;;;;5028114;28;20083;-70
2022/04/16 09:36:54;;;;;;;13.98;7.45;;;18.40;98.90;;;;;;5030312;28;20047;-70
2022/04/16 09:39:22;;;;;;;7.97;5.25;;;18.50;99.00;;;;;;5029923;28;20073;-70
2022/04/16 09:41:51;;;;;;;12.35;8.88;;;18.60;97.40;;;;;;5027892;28;20504;-70
2022/04/16 09:44:22;;;;;;;8.20;5.80;;;18.40;98.20;;;;;;5028939;28;20107;-70
2022/04/16 09:46:49;;;;;;;10.73;6.25;;;18.80;97.50;;;;;;5029445;28;20049;-70
2022/04/16 09:49:16;;;;;;;10.15;6.30;;;18.50;96.80;;;;;;5030954;28;20044;-70
2022/04/16 09:51:44;;;;;;;9.82;7.07;;;18.30;96.80;;;;;;5025445;28;20042;-69
2022/04/16 09:54:10;;;;;;;8.35;5.50;;;18.30;96.90;;;;;;5029845;28;20054;-70
2022/04/16 09:56:39;;;;;;;7.22;5.38;;;18.60;96.30;;;;;;5010037;28;20042;-69
2022/04/16 09:59:06;;;;;;;7.50;6.07;;;18.80;96.80;;;;;;5011256;28;20049;-69
2022/04/16 10:01:33;;;;;;;10.55;6.60;;;19.20;96.50;;;;;;5012377;28;20053;-69
2022/04/16 10:04:03;;;;;;;7.63;5.18;;;19.20;95.70;;;;;;5029579;28;20049;-69
2022/04/16 10:06:29;;;;;;;7.38;5.53;;;19.30;96.10;;;;;;5030405;28;20060;-69
2022/04/16 10:08:56;;;;;;;8.10;5.20;;;19.20;95.50;;;;;;5015104;28;20072;-69
2022/04/16 10:11:42;;;;;;;6.25;3.80;;;19.30;94.90;;;;;;5009804;28;20172;-70
2022/04/16 10:14:30;;;;;;;5.28;4.18;;;19.50;95.20;;;;;;5029811;28;20047;-69
2022/04/16 10:17:14;;;;;;;6.53;4.85;;;19.10;94.50;;;;;;5029325;28;20553;-69
2022/04/16 10:19:45;;;;;;;6.82;4.20;;;19.10;94.70;;;;;;5029870;28;20056;-70
2022/04/16 10:22:25;;;;;;;4.30;3.90;;;19.10;94.30;;;;;;5009793;28;20046;-69
2022/04/16 10:24:57;;;;;;;6.00;3.97;;;18.80;93.60;;;;;;5010233;28;20053;-69
2022/04/16 10:27:29;;;;;;;5.97;3.95;;;18.80;93.40;;;;;;5016076;28;20053;-69
2022/04/16 10:30:03;;;;;;;7.78;4.10;;;18.50;93.80;;;;;;5021193;28;20386;-69
2022/04/16 10:32:43;;;;;;;5.25;3.53;;;18.60;94.20;;;;;;5025348;28;20041;-69
2022/04/16 10:35:14;;;;;;;6.18;4.70;;;18.60;94.40;;;;;;5026942;28;20053;-69
2022/04/16 10:37:41;;;;;;;4.40;2.75;;;18.60;94.80;;;;;;5009718;28;20060;-69
2022/04/16 10:40:25;;;;;;;3.72;2.35;;;18.40;93.30;;;;;;5010592;28;20069;-69
2022/04/16 10:42:58;;;;;;;5.93;4.18;;;18.50;93.60;;;;;;5008938;28;20041;-69
2022/04/16 10:45:24;;;;;;;2.45;2.25;;;18.30;93.80;;;;;;5020134;28;20045;-69
2022/04/16 10:47:51;;;;;;;3.58;2.42;;;18.60;94.40;;;;;;5015648;28;20130;-69
2022/04/16 10:50:18;;;;;;;5.15;2.45;;;18.70;93.20;;;;;;5009731;28;20048;-69
2022/04/16 10:52:55;;;;;;;4.13;2.53;;;18.80;92.90;;;;;;5009390;28;20397;-69
2022/04/16 10:55:25;;;;;;;3.10;2.10;;;18.90;93.60;;;;;;5022225;28;20120;-70
2022/04/16 10:57:58;;;;;;;3.85;2.80;;;18.90;93.60;;;;;;5029392;28;20567;-69
2022/04/16 11:00:35;;;;;;;6.10;3.17;;;18.80;94.10;;;;;;5030120;28;20051;-69
2022/04/16 11:03:27;;;;;;;2.83;2.05;;;18.80;92.90;;;;;;5026678;28;20056;-69
2022/04/16 11:06:07;;;;;;;8.10;2.95;;;19.00;91.90;;;;;;5026640;28;20041;-69
2022/04/16 11:08:40;;;;;;;3.33;2.40;;;19.10;92.70;;;;;;5012209;28;20547;-69
2022/04/16 11:11:06;;;;;;;;;;;19.20;92.60;;;;;;5013615;28;20045;-68
2022/04/16 11:13:36;;;;;;;3.38;1.63;;;19.10;91.60;;;;;;5021979;28;19931;-68
2022/04/16 11:16:03;;;;;;;2.15;1.50;;;19.40;92.90;;;;;;5020413;28;20045;-69
2022/04/16 11:18:45;;;;;;;2.22;1.58;;;19.20;90.60;;;;;;5013424;28;20053;-68
2022/04/16 11:21:19;;;;;;;4.85;2.15;;;19.10;91.10;;;;;;5027042;28;20046;-69
2022/04/16 11:23:46;;;;;;;4.38;2.47;;;19.50;91.30;;;;;;5012864;28;20034;-68
2022/04/16 11:34:32;;;;;;;2.47;1.77;;;19.60;91.30;;;;;;5021898;28;20065;-66
2022/04/16 11:36:59;;;;;;;3.80;1.60;;;19.80;90.70;;;;;;5020874;28;20045;-68
2022/04/16 11:39:32;;;;;;;4.53;2.13;;;19.70;90.10;;;;;;5032501;28;20053;-67
2022/04/16 11:42:06;;;;;;;4.28;1.77;;;19.50;90.00;;;;;;5019001;28;20037;-67
2022/04/16 11:44:32;;;;;;;;;;;19.40;88.20;;;;;;5025363;28;20541;-67
2022/04/16 11:47:00;;;;;;;2.55;1.90;;;19.30;88.60;;;;;;5025131;28;20384;-68
2022/04/16 11:49:26;;;;;;;3.20;1.63;;;19.50;89.50;;;;;;5030328;28;20049;-67
2022/04/16 11:51:51;;;;;;;2.85;2.08;;;19.70;89.90;;;;;;5027154;28;20052;-66
2022/04/16 11:54:29;;;;;;;2.30;1.50;;;19.80;90.30;;;;;;5013125;28;20065;-67
2022/04/16 11:56:55;;;;;;;2.80;1.90;;;19.70;87.80;;;;;;5012760;28;20054;-67
2022/04/16 11:59:25;;;;;;;2.83;1.70;;;19.90;89.40;;;;;;5035589;28;20049;-67
2022/04/16 12:01:57;;;;;;;5.55;2.15;;;20.00;90.90;;;;;;5027556;28;20411;-67
2022/04/16 12:04:36;;;;;;;2.92;1.90;;;20.30;88.10;;;;;;5029202;28;20054;-67
2022/04/16 12:07:02;;;;;;;7.00;2.13;;;20.30;85.10;;;;;;5029730;28;20052;-67
2022/04/16 12:09:30;;;;;;;2.38;1.92;;;20.00;84.00;;;;;;5015091;28;20046;-67
2022/04/16 12:11:56;;;;;;;3.00;2.03;;;20.10;84.20;;;;;;5013858;28;20160;-67
2022/04/16 12:14:23;;;;;;;3.40;1.92;;;20.30;84.70;;;;;;5032048;28;20132;-67
2022/04/16 12:17:00;;;;;;;2.35;1.85;;;20.50;85.20;;;;;;5032814;28;20057;-68
2022/04/16 12:19:33;;;;;;;6.90;2.03;;;20.20;79.60;;;;;;5029198;28;20424;-67
2022/04/16 12:21:59;;;;;;;2.28;1.73;;;20.40;81.20;;;;;;5019143;28;20132;-67
2022/04/16 12:24:28;;;;;;;3.65;1.90;;;20.30;82.20;;;;;;5016786;28;20125;-67
2022/04/16 12:26:55;;;;;;;2.25;1.45;;;20.20;82.60;;;;;;5013885;28;20037;-67
2022/04/16 12:29:29;;;;;;;4.50;1.52;;;20.70;85.90;;;;;;5031734;28;20042;-68
2022/04/16 12:31:58;;;;;;;3.40;1.90;;;21.00;84.90;;;;;;5024323;28;20042;-67
2022/04/16 12:34:27;;;;;;;3.53;1.60;;;20.80;81.40;;;;;;5012051;28;20044;-67
2022/04/16 12:36:53;;;;;;;19.38;3.03;;;21.00;82.30;;;;;;5016724;28;20043;-68
2022/04/16 12:39:19;;;;;;;1.30;1.20;;;21.10;80.90;;;;;;5011959;28;20124;-67
2022/04/16 12:41:44;;;;;;;2.55;1.63;;;21.10;81.80;;;;;;5020999;28;20087;-67
2022/04/16 12:44:10;;;;;;;2.17;1.42;;;21.10;79.40;;;;;;5032540;28;20137;-67
2022/04/16 12:46:35;;;;;;;2.55;1.65;;;21.10;76.90;;;;;;5019634;28;20049;-67
2022/04/16 12:49:01;;;;;;;2.25;1.48;;;20.80;78.00;;;;;;5011929;28;20049;-67
2022/04/16 12:51:27;;;;;;;2.55;1.20;;;20.80;78.90;;;;;;5011315;28;20077;-68
2022/04/16 12:53:53;;;;;;;7.10;1.20;;;20.80;78.50;;;;;;5013504;28;20089;-67
2022/04/16 12:56:18;;;;;;;6.15;1.27;;;20.70;75.90;;;;;;5023778;28;20053;-67
2022/04/16 12:58:44;;;;;;;2.30;1.00;;;20.80;74.40;;;;;;5013321;28;20049;-67
2022/04/16 13:01:10;;;;;;;2.17;0.98;;;20.80;75.20;;;;;;5028589;28;20085;-67